Flight Track Log - Related Links

Times and Time Zones

All times are in EDT time to prevent confusion due to time zone crossing. See the KAP150 flight status page for this flight to view local times or setup timezone preferences in your user account.

Time Position Orientation Groundspeed Altitude Reporting Facility
EDT Latitude Longitude Course Direction KTS MPH feet Rate Location/Type
Mon 03:16:54 PM 42.3667 -71.0167 200° South 91 105 500  Level KA90
Mon 03:18:02 PM 42.3333 -71.0333 200° South 115 132 1,400 761 Climbing KA90
Mon 03:19:08 PM 42.3000 -71.0333 180° South 121 139 2,200 500 Climbing KA90
Mon 03:20:02 PM 42.2667 -71.0000 143° Southeast 135 155 2,400 158 Climbing KA90
Mon 03:21:02 PM 42.2333 -70.9667 143° Southeast 166 191 2,500 47 Climbing KA90
Mon 03:22:09 PM 42.2000 -70.9333 143° Southeast 164 189 2,500  Level KA90
Mon 03:22:56 PM 42.1667 -70.9000 143° Southeast 160 184 2,500  Level KA90
Mon 03:24:02 PM 42.1167 -70.8833 166° South 172 198 2,500  Level KA90
Mon 03:25:03 PM 42.0833 -70.8500 143° Southeast 163 188 2,500  Level KA90
Mon 03:27:00 PM 42.0206 -70.7894 144° Southeast  Level Estimated
Mon 03:34:00 PM 41.7952 -70.5730 144° Southeast  Level Estimated
Mon 03:35:00 PM 41.7629 -70.5422 145° Southeast  Level Estimated
Mon 03:36:00 PM 41.7307 -70.5115 145° Southeast  Level Estimated
Mon 03:37:00 PM 41.6984 -70.4807 145° Southeast  Level Estimated
Mon 03:38:00 PM 41.6662 -70.4500 145° Southeast  Level Estimated
Mon 03:39:00 PM 41.6339 -70.4194 145° Southeast  Level Estimated
Mon 03:40:00 PM 41.6016 -70.3887 145° Southeast  Level Estimated
Mon 03:41:00 PM 41.5693 -70.3581 145° Southeast  Level Estimated
Mon 03:42:00 PM 41.5370 -70.3275 145° Southeast  Level Estimated
Mon 03:43:00 PM 41.5047 -70.2970 145° Southeast  Level Estimated
Mon 03:44:00 PM 41.4724 -70.2665 145° Southeast  Level Estimated
Mon 03:45:00 PM 41.4401 -70.2360 145° Southeast  Level Estimated
Mon 03:46:00 PM 41.4078 -70.2055 145° Southeast  Level Estimated
Mon 03:47:00 PM 41.3755 -70.1751 145° Southeast  Level Estimated
Mon 03:48:00 PM 41.3431 -70.1447 145° Southeast  Level Estimated
Mon 03:49:00 PM 41.3108 -70.1143 145° Southeast  Level Estimated
Mon 03:50:00 PM 41.2784 -70.0840 145° Southeast  Level Estimated
Mon 03:51:00 PM 41.2531 -70.0603 145° Southeast  Level Estimated
Mon 03:52:00 PM 41.2531 -70.0603 72° East  Level Estimated
Mon 03:53:00 PM 41.2531 -70.0603 72° East  Level Estimated
Mon 03:54:00 PM 41.2531 -70.0603 72° East  Level Estimated
Mon 03:55:00 PM 41.2531 -70.0603 72° East  Level Estimated
Mon 03:56:00 PM 41.2531 -70.0603 72° East  Level Estimated
Mon 03:57:00 PM 41.2531 -70.0603 72° East  Level Estimated
Mon 03:58:00 PM 41.2531 -70.0603 72° East  Level Estimated
Mon 03:59:00 PM 41.2531 -70.0603 72° East  Level Estimated
Mon 04:00:00 PM 41.2531 -70.0603 72° East  Level Estimated
Mon 04:01:00 PM 41.2531 -70.0603 72° East  Level Estimated
Mon 04:02:00 PM 41.2531 -70.0603 72° East  Level Estimated
Mon 04:03:00 PM 41.2531 -70.0603 72° East  Level Estimated
Mon 04:04:00 PM 41.2531 -70.0603 72° East  Level Estimated
Mon 04:05:00 PM 41.2531 -70.0603 72° East  Level Estimated
Mon 04:06:00 PM 41.2531 -70.0603 72° East  Level Estimated
Mon 04:07:00 PM 41.2531 -70.0603 72° East  Level Estimated
Mon 04:08:00 PM 41.2531 -70.0603 72° East  Level Estimated
Mon 04:09:00 PM 41.2531 -70.0603 72° East  Level Estimated
Mon 04:10:00 PM 41.2531 -70.0603 72° East  Level Estimated
Mon 04:11:00 PM 41.2531 -70.0603 72° East  Level Estimated
Mon 04:12:00 PM 41.2531 -70.0603 72° East  Level Estimated

Login

Don't have an account? Register now (free) for customized features, flight alerts, and more!